Desbiens, Canada
Current Conditions -  °F | °C
As of 11:00 AM on Sunday 25 Jan 2015 (Local Time) from CYRJ Reporting Station
Blowing Snow Blowing Snow  
Wind Chill: -21°   Ceiling: Unl
Heat Index:   Visibility: 25mi
Dew Point: -11°   Wind: 22mph
Humidity: 56%   Direction: 310°NW
Pressure: 29.52"   Gusts: 29mph
Location:  48.42°N, 71.95°W
Report Text: CYRJ 251600Z 31019G25KT 25SM DRSN FEW030 SCT080 M17/M24 A2952 RMK CU1AC3 SLP013
Loading
Personal Weather Stations






























Interactive Weather Map New forecast layout! Learn more

10-Day Weather Forecast

Advertisements
Track Severe Weather on mobile